sensor_id;sensor_type;location;lat;lon;timestamp;temperature;humidity
80282;DHT22;69586;51.890;-8.458;2024-02-21T12:57:27;20.40;53.50
80282;DHT22;69586;51.890;-8.458;2024-02-21T12:59:53;20.20;53.90
80282;DHT22;69586;51.890;-8.458;2024-02-21T13:02:19;20.10;54.00
80282;DHT22;69586;51.890;-8.458;2024-02-21T13:04:46;20.10;54.30
80282;DHT22;69586;51.890;-8.458;2024-02-21T13:07:11;20.00;54.30
80282;DHT22;69586;51.890;-8.458;2024-02-21T13:09:37;20.10;54.70
80282;DHT22;69586;51.890;-8.458;2024-02-21T13:12:03;20.10;54.60
80282;DHT22;69586;51.890;-8.458;2024-02-21T13:14:29;20.00;54.80
80282;DHT22;69586;51.890;-8.458;2024-02-21T13:16:55;20.00;54.90
80282;DHT22;69586;51.890;-8.458;2024-02-21T13:19:21;20.00;54.60
80282;DHT22;69586;51.890;-8.458;2024-02-21T13:21:47;19.90;55.30
80282;DHT22;69586;51.890;-8.458;2024-02-21T13:24:13;19.90;55.70
80282;DHT22;69586;51.890;-8.458;2024-02-21T13:26:39;19.90;55.50
80282;DHT22;69586;51.890;-8.458;2024-02-21T13:29:04;19.90;55.40
80282;DHT22;69586;51.890;-8.458;2024-02-21T13:31:30;19.80;55.20
80282;DHT22;69586;51.890;-8.458;2024-02-21T13:33:56;19.70;55.10
80282;DHT22;69586;51.890;-8.458;2024-02-21T13:36:22;19.70;54.60
80282;DHT22;69586;51.890;-8.458;2024-02-21T13:38:47;19.70;54.80
80282;DHT22;69586;51.890;-8.458;2024-02-21T13:41:13;19.70;55.10
80282;DHT22;69586;51.890;-8.458;2024-02-21T13:43:39;19.70;54.50
80282;DHT22;69586;51.890;-8.458;2024-02-21T13:46:04;19.70;54.70
80282;DHT22;69586;51.890;-8.458;2024-02-21T13:48:35;19.70;54.70
80282;DHT22;69586;51.890;-8.458;2024-02-21T13:51:01;19.70;53.80
80282;DHT22;69586;51.890;-8.458;2024-02-21T13:53:28;19.70;53.90
80282;DHT22;69586;51.890;-8.458;2024-02-21T13:55:54;19.70;53.00
80282;DHT22;69586;51.890;-8.458;2024-02-21T13:58:19;19.60;53.00
80282;DHT22;69586;51.890;-8.458;2024-02-21T14:00:46;19.60;53.40
80282;DHT22;69586;51.890;-8.458;2024-02-21T14:03:12;19.50;53.20
80282;DHT22;69586;51.890;-8.458;2024-02-21T14:05:38;19.50;52.70
80282;DHT22;69586;51.890;-8.458;2024-02-21T14:08:06;19.50;53.10
80282;DHT22;69586;51.890;-8.458;2024-02-21T14:10:32;19.50;52.80
80282;DHT22;69586;51.890;-8.458;2024-02-21T14:12:59;19.50;52.50
80282;DHT22;69586;51.890;-8.458;2024-02-21T14:15:25;19.50;52.30
80282;DHT22;69586;51.890;-8.458;2024-02-21T14:17:51;19.50;52.80
80282;DHT22;69586;51.890;-8.458;2024-02-21T14:20:17;19.50;53.30
80282;DHT22;69586;51.890;-8.458;2024-02-21T14:22:43;19.50;53.00
80282;DHT22;69586;51.890;-8.458;2024-02-21T14:25:08;19.50;52.70
80282;DHT22;69586;51.890;-8.458;2024-02-21T14:27:34;19.40;52.80
80282;DHT22;69586;51.890;-8.458;2024-02-21T14:30:02;19.40;53.30
80282;DHT22;69586;51.890;-8.458;2024-02-21T14:32:28;19.40;52.60
80282;DHT22;69586;51.890;-8.458;2024-02-21T14:34:54;19.40;52.90
80282;DHT22;69586;51.890;-8.458;2024-02-21T14:37:20;19.40;53.00
80282;DHT22;69586;51.890;-8.458;2024-02-21T14:39:47;19.50;52.90
80282;DHT22;69586;51.890;-8.458;2024-02-21T14:42:13;19.50;52.90
80282;DHT22;69586;51.890;-8.458;2024-02-21T14:44:38;19.50;53.20
80282;DHT22;69586;51.890;-8.458;2024-02-21T14:47:05;19.50;53.20
80282;DHT22;69586;51.890;-8.458;2024-02-21T14:49:30;19.50;52.50
80282;DHT22;69586;51.890;-8.458;2024-02-21T14:51:56;19.50;52.70
80282;DHT22;69586;51.890;-8.458;2024-02-21T14:54:22;19.50;52.80
80282;DHT22;69586;51.890;-8.458;2024-02-21T14:56:49;19.50;52.60
80282;DHT22;69586;51.890;-8.458;2024-02-21T14:59:15;19.40;52.80
80282;DHT22;69586;51.890;-8.458;2024-02-21T15:01:42;19.40;52.50
80282;DHT22;69586;51.890;-8.458;2024-02-21T15:04:08;19.30;53.10
80282;DHT22;69586;51.890;-8.458;2024-02-21T15:06:34;19.30;53.10
80282;DHT22;69586;51.890;-8.458;2024-02-21T15:09:02;19.20;53.10
80282;DHT22;69586;51.890;-8.458;2024-02-21T15:11:29;19.20;53.60
80282;DHT22;69586;51.890;-8.458;2024-02-21T15:13:55;19.20;53.60
80282;DHT22;69586;51.890;-8.458;2024-02-21T15:16:20;19.20;53.40
80282;DHT22;69586;51.890;-8.458;2024-02-21T15:18:46;19.10;53.10
80282;DHT22;69586;51.890;-8.458;2024-02-21T15:21:12;19.10;53.60
80282;DHT22;69586;51.890;-8.458;2024-02-21T15:23:41;19.10;53.00
80282;DHT22;69586;51.890;-8.458;2024-02-21T15:26:07;19.00;52.80
80282;DHT22;69586;51.890;-8.458;2024-02-21T15:28:32;19.00;53.20
80282;DHT22;69586;51.890;-8.458;2024-02-21T15:30:58;19.00;53.70
80282;DHT22;69586;51.890;-8.458;2024-02-21T15:33:24;19.00;53.10
80282;DHT22;69586;51.890;-8.458;2024-02-21T15:35:51;19.00;53.30
80282;DHT22;69586;51.890;-8.458;2024-02-21T15:38:17;19.00;53.40
80282;DHT22;69586;51.890;-8.458;2024-02-21T15:40:43;19.00;53.10
80282;DHT22;69586;51.890;-8.458;2024-02-21T15:43:08;19.00;52.00
80282;DHT22;69586;51.890;-8.458;2024-02-21T15:45:34;19.00;52.90
80282;DHT22;69586;51.890;-8.458;2024-02-21T15:48:00;18.90;52.20
80282;DHT22;69586;51.890;-8.458;2024-02-21T15:50:26;18.90;51.80
80282;DHT22;69586;51.890;-8.458;2024-02-21T15:52:54;18.90;51.70
80282;DHT22;69586;51.890;-8.458;2024-02-21T15:55:21;18.80;52.20
80282;DHT22;69586;51.890;-8.458;2024-02-21T17:29:54;17.50;54.20
80282;DHT22;69586;51.890;-8.458;2024-02-21T17:32:19;17.40;53.90
80282;DHT22;69586;51.890;-8.458;2024-02-21T17:34:45;17.30;54.10
80282;DHT22;69586;51.890;-8.458;2024-02-21T17:37:12;17.30;54.50
80282;DHT22;69586;51.890;-8.458;2024-02-21T17:39:38;17.20;54.40
80282;DHT22;69586;51.890;-8.458;2024-02-21T17:42:04;17.20;54.60
80282;DHT22;69586;51.890;-8.458;2024-02-21T17:44:29;17.20;54.70
80282;DHT22;69586;51.890;-8.458;2024-02-21T17:46:55;17.20;54.60
80282;DHT22;69586;51.890;-8.458;2024-02-21T17:49:21;17.20;54.20
80282;DHT22;69586;51.890;-8.458;2024-02-21T17:51:48;17.00;54.50
80282;DHT22;69586;51.890;-8.458;2024-02-21T17:54:13;17.00;54.60
80282;DHT22;69586;51.890;-8.458;2024-02-21T17:56:41;17.00;54.90
80282;DHT22;69586;51.890;-8.458;2024-02-21T17:59:07;16.90;54.90
80282;DHT22;69586;51.890;-8.458;2024-02-21T18:01:33;16.80;55.00
80282;DHT22;69586;51.890;-8.458;2024-02-21T18:03:59;16.80;54.90
80282;DHT22;69586;51.890;-8.458;2024-02-21T18:06:25;16.80;55.30
80282;DHT22;69586;51.890;-8.458;2024-02-21T18:08:50;16.80;55.50
80282;DHT22;69586;51.890;-8.458;2024-02-21T18:11:17;16.80;55.50
80282;DHT22;69586;51.890;-8.458;2024-02-21T18:13:43;16.80;55.50
80282;DHT22;69586;51.890;-8.458;2024-02-21T18:16:09;16.80;55.40
80282;DHT22;69586;51.890;-8.458;2024-02-21T18:18:34;16.80;55.50
80282;DHT22;69586;51.890;-8.458;2024-02-21T18:21:00;16.80;55.10
80282;DHT22;69586;51.890;-8.458;2024-02-21T18:23:26;16.70;55.30
80282;DHT22;69586;51.890;-8.458;2024-02-21T18:25:55;16.60;55.40
80282;DHT22;69586;51.890;-8.458;2024-02-21T18:28:20;16.60;55.60
80282;DHT22;69586;51.890;-8.458;2024-02-21T18:30:46;16.50;55.80
80282;DHT22;69586;51.890;-8.458;2024-02-21T18:33:12;16.50;55.90
80282;DHT22;69586;51.890;-8.458;2024-02-21T18:35:38;16.50;55.90
80282;DHT22;69586;51.890;-8.458;2024-02-21T18:38:04;16.40;56.00
80282;DHT22;69586;51.890;-8.458;2024-02-21T18:40:30;16.40;56.20
80282;DHT22;69586;51.890;-8.458;2024-02-21T18:42:56;16.40;56.50
80282;DHT22;69586;51.890;-8.458;2024-02-21T18:45:25;16.40;56.70
80282;DHT22;69586;51.890;-8.458;2024-02-21T18:47:51;16.30;57.00
80282;DHT22;69586;51.890;-8.458;2024-02-21T18:50:19;16.30;57.20
80282;DHT22;69586;51.890;-8.458;2024-02-21T18:52:45;16.20;57.60
80282;DHT22;69586;51.890;-8.458;2024-02-21T18:55:16;16.20;57.80
80282;DHT22;69586;51.890;-8.458;2024-02-21T18:57:42;16.20;58.00
80282;DHT22;69586;51.890;-8.458;2024-02-21T19:00:08;16.10;58.30
80282;DHT22;69586;51.890;-8.458;2024-02-21T19:02:36;16.10;58.30
80282;DHT22;69586;51.890;-8.458;2024-02-21T19:05:02;16.00;58.40
80282;DHT22;69586;51.890;-8.458;2024-02-21T19:07:28;16.00;58.50
80282;DHT22;69586;51.890;-8.458;2024-02-21T19:09:54;16.00;58.60
80282;DHT22;69586;51.890;-8.458;2024-02-21T19:12:20;16.00;58.90
80282;DHT22;69586;51.890;-8.458;2024-02-21T19:14:46;16.00;59.10
80282;DHT22;69586;51.890;-8.458;2024-02-21T19:17:12;15.90;59.40
80282;DHT22;69586;51.890;-8.458;2024-02-21T19:19:37;15.80;59.60
80282;DHT22;69586;51.890;-8.458;2024-02-21T19:22:03;15.80;59.80
80282;DHT22;69586;51.890;-8.458;2024-02-21T19:24:30;15.80;60.10
80282;DHT22;69586;51.890;-8.458;2024-02-21T19:26:56;15.80;60.00
